sensor_id;sensor_type;location;lat;lon;timestamp;temperature;humidity
60868;DHT22;46702;48.370;10.794;2023-03-21T00:00:41;7.20;99.90
60868;DHT22;46702;48.370;10.794;2023-03-21T00:03:07;7.20;99.90
60868;DHT22;46702;48.370;10.794;2023-03-21T00:05:33;7.30;99.90
60868;DHT22;46702;48.370;10.794;2023-03-21T00:07:59;7.30;99.90
60868;DHT22;46702;48.370;10.794;2023-03-21T00:10:24;7.30;99.90
60868;DHT22;46702;48.370;10.794;2023-03-21T00:12:50;7.30;99.90
60868;DHT22;46702;48.370;10.794;2023-03-21T00:15:20;7.30;99.90
60868;DHT22;46702;48.370;10.794;2023-03-21T00:17:45;7.40;99.90
60868;DHT22;46702;48.370;10.794;2023-03-21T00:20:15;7.40;99.90
60868;DHT22;46702;48.370;10.794;2023-03-21T00:22:41;7.40;99.90
60868;DHT22;46702;48.370;10.794;2023-03-21T00:25:08;7.30;99.90
60868;DHT22;46702;48.370;10.794;2023-03-21T00:27:35;7.40;99.90
60868;DHT22;46702;48.370;10.794;2023-03-21T00:30:01;7.40;99.90
60868;DHT22;46702;48.370;10.794;2023-03-21T00:32:27;7.40;99.90
60868;DHT22;46702;48.370;10.794;2023-03-21T00:34:53;7.30;99.90
60868;DHT22;46702;48.370;10.794;2023-03-21T00:37:18;7.30;99.90
60868;DHT22;46702;48.370;10.794;2023-03-21T00:39:46;7.30;99.90
60868;DHT22;46702;48.370;10.794;2023-03-21T00:42:17;7.30;99.90
60868;DHT22;46702;48.370;10.794;2023-03-21T00:44:43;7.20;99.90
60868;DHT22;46702;48.370;10.794;2023-03-21T00:47:10;7.00;99.90
60868;DHT22;46702;48.370;10.794;2023-03-21T00:49:36;7.10;99.90
60868;DHT22;46702;48.370;10.794;2023-03-21T00:52:07;7.10;99.90
60868;DHT22;46702;48.370;10.794;2023-03-21T00:54:33;7.20;99.90
60868;DHT22;46702;48.370;10.794;2023-03-21T00:57:00;7.20;99.90
60868;DHT22;46702;48.370;10.794;2023-03-21T00:59:27;7.20;99.90
60868;DHT22;46702;48.370;10.794;2023-03-21T01:01:53;7.10;99.90
60868;DHT22;46702;48.370;10.794;2023-03-21T01:04:19;7.10;99.90
60868;DHT22;46702;48.370;10.794;2023-03-21T01:06:46;7.10;99.90
60868;DHT22;46702;48.370;10.794;2023-03-21T01:09:17;7.10;99.90
60868;DHT22;46702;48.370;10.794;2023-03-21T01:11:43;7.00;99.90
60868;DHT22;46702;48.370;10.794;2023-03-21T01:14:09;7.10;99.90
60868;DHT22;46702;48.370;10.794;2023-03-21T01:16:36;7.00;99.90
60868;DHT22;46702;48.370;10.794;2023-03-21T01:19:03;6.90;99.90
60868;DHT22;46702;48.370;10.794;2023-03-21T01:21:28;6.90;99.90
60868;DHT22;46702;48.370;10.794;2023-03-21T01:23:54;7.00;99.90
60868;DHT22;46702;48.370;10.794;2023-03-21T01:26:20;6.90;99.90
60868;DHT22;46702;48.370;10.794;2023-03-21T01:28:46;6.90;99.90
60868;DHT22;46702;48.370;10.794;2023-03-21T01:31:13;7.00;99.90
60868;DHT22;46702;48.370;10.794;2023-03-21T01:33:40;7.00;99.90
60868;DHT22;46702;48.370;10.794;2023-03-21T01:36:06;7.00;99.90
60868;DHT22;46702;48.370;10.794;2023-03-21T01:38:33;7.10;99.90
60868;DHT22;46702;48.370;10.794;2023-03-21T01:41:00;7.00;99.90
60868;DHT22;46702;48.370;10.794;2023-03-21T01:43:31;7.00;99.90
60868;DHT22;46702;48.370;10.794;2023-03-21T01:48:23;7.00;99.90
60868;DHT22;46702;48.370;10.794;2023-03-21T01:50:50;7.00;99.90
60868;DHT22;46702;48.370;10.794;2023-03-21T01:53:18;7.00;99.90
60868;DHT22;46702;48.370;10.794;2023-03-21T01:55:45;7.00;99.90
60868;DHT22;46702;48.370;10.794;2023-03-21T01:58:13;7.10;99.90
60868;DHT22;46702;48.370;10.794;2023-03-21T02:00:44;7.10;99.90
60868;DHT22;46702;48.370;10.794;2023-03-21T02:03:11;7.10;99.90
60868;DHT22;46702;48.370;10.794;2023-03-21T02:06:45;7.10;99.90
60868;DHT22;46702;48.370;10.794;2023-03-21T02:08:46;7.10;99.90
60868;DHT22;46702;48.370;10.794;2023-03-21T02:11:13;7.20;99.90
60868;DHT22;46702;48.370;10.794;2023-03-21T02:13:38;7.20;99.90
60868;DHT22;46702;48.370;10.794;2023-03-21T02:16:36;7.20;99.90
60868;DHT22;46702;48.370;10.794;2023-03-21T02:24:57;7.10;99.90
60868;DHT22;46702;48.370;10.794;2023-03-21T02:27:28;7.10;99.90
60868;DHT22;46702;48.370;10.794;2023-03-21T02:32:57;7.20;99.90
60868;DHT22;46702;48.370;10.794;2023-03-21T02:41:18;7.20;99.90
60868;DHT22;46702;48.370;10.794;2023-03-21T02:44:55;7.20;99.90
60868;DHT22;46702;48.370;10.794;2023-03-21T02:49:25;7.20;99.90
60868;DHT22;46702;48.370;10.794;2023-03-21T02:51:52;7.20;99.90
60868;DHT22;46702;48.370;10.794;2023-03-21T02:54:22;7.20;99.90
60868;DHT22;46702;48.370;10.794;2023-03-21T02:56:50;7.20;99.90
60868;DHT22;46702;48.370;10.794;2023-03-21T02:59:18;7.20;99.90
60868;DHT22;46702;48.370;10.794;2023-03-21T03:01:44;7.20;99.90
60868;DHT22;46702;48.370;10.794;2023-03-21T03:04:21;7.20;99.90
60868;DHT22;46702;48.370;10.794;2023-03-21T03:09:48;7.30;99.90
60868;DHT22;46702;48.370;10.794;2023-03-21T03:12:35;7.20;99.90
60868;DHT22;46702;48.370;10.794;2023-03-21T03:26:08;7.20;99.90
60868;DHT22;46702;48.370;10.794;2023-03-21T03:28:38;7.20;99.90
60868;DHT22;46702;48.370;10.794;2023-03-21T03:31:06;7.20;99.90
60868;DHT22;46702;48.370;10.794;2023-03-21T03:33:34;7.20;99.90
60868;DHT22;46702;48.370;10.794;2023-03-21T03:36:01;7.00;99.90
60868;DHT22;46702;48.370;10.794;2023-03-21T03:38:28;6.90;99.90
60868;DHT22;46702;48.370;10.794;2023-03-21T03:41:00;6.80;99.90
60868;DHT22;46702;48.370;10.794;2023-03-21T03:43:36;6.90;99.90
60868;DHT22;46702;48.370;10.794;2023-03-21T03:46:16;6.80;99.90
60868;DHT22;46702;48.370;10.794;2023-03-21T03:48:54;6.80;99.90
60868;DHT22;46702;48.370;10.794;2023-03-21T03:51:41;6.80;99.90
60868;DHT22;46702;48.370;10.794;2023-03-21T03:54:12;6.80;99.90
60868;DHT22;46702;48.370;10.794;2023-03-21T03:56:39;6.90;99.90
60868;DHT22;46702;48.370;10.794;2023-03-21T03:59:05;6.80;99.90
60868;DHT22;46702;48.370;10.794;2023-03-21T04:01:32;6.90;99.90
60868;DHT22;46702;48.370;10.794;2023-03-21T04:03:58;6.80;99.90
60868;DHT22;46702;48.370;10.794;2023-03-21T04:06:25;6.80;99.90
60868;DHT22;46702;48.370;10.794;2023-03-21T04:08:56;6.90;99.90
60868;DHT22;46702;48.370;10.794;2023-03-21T04:11:22;6.90;99.90
60868;DHT22;46702;48.370;10.794;2023-03-21T04:13:48;6.90;99.90
60868;DHT22;46702;48.370;10.794;2023-03-21T04:16:13;6.90;99.90
60868;DHT22;46702;48.370;10.794;2023-03-21T04:18:40;6.90;99.90
60868;DHT22;46702;48.370;10.794;2023-03-21T04:21:10;6.90;99.90
60868;DHT22;46702;48.370;10.794;2023-03-21T04:23:37;6.90;99.90
60868;DHT22;46702;48.370;10.794;2023-03-21T04:26:03;6.80;99.90
60868;DHT22;46702;48.370;10.794;2023-03-21T04:28:30;6.80;99.90
60868;DHT22;46702;48.370;10.794;2023-03-21T04:30:56;6.80;99.90
60868;DHT22;46702;48.370;10.794;2023-03-21T04:33:24;6.70;99.90
60868;DHT22;46702;48.370;10.794;2023-03-21T04:36:01;6.70;99.90
60868;DHT22;46702;48.370;10.794;2023-03-21T04:38:26;6.70;99.90
60868;DHT22;46702;48.370;10.794;2023-03-21T04:40:55;6.70;99.90
60868;DHT22;46702;48.370;10.794;2023-03-21T04:43:21;6.80;99.90
60868;DHT22;46702;48.370;10.794;2023-03-21T04:45:48;6.80;99.90
60868;DHT22;46702;48.370;10.794;2023-03-21T04:48:14;6.80;99.90
60868;DHT22;46702;48.370;10.794;2023-03-21T04:50:43;6.90;99.90
60868;DHT22;46702;48.370;10.794;2023-03-21T04:53:08;6.90;99.90
60868;DHT22;46702;48.370;10.794;2023-03-21T04:55:34;6.80;99.90
60868;DHT22;46702;48.370;10.794;2023-03-21T04:58:04;6.80;99.90
60868;DHT22;46702;48.370;10.794;2023-03-21T05:00:30;6.80;99.90
60868;DHT22;46702;48.370;10.794;2023-03-21T05:02:56;6.90;99.90
60868;DHT22;46702;48.370;10.794;2023-03-21T05:05:23;6.90;99.90
60868;DHT22;46702;48.370;10.794;2023-03-21T05:07:49;6.90;99.90
60868;DHT22;46702;48.370;10.794;2023-03-21T05:10:15;6.90;99.90
60868;DHT22;46702;48.370;10.794;2023-03-21T05:12:40;6.90;99.90
60868;DHT22;46702;48.370;10.794;2023-03-21T05:15:07;6.90;99.90
60868;DHT22;46702;48.370;10.794;2023-03-21T05:17:33;6.90;99.90
60868;DHT22;46702;48.370;10.794;2023-03-21T05:19:59;6.90;99.90
60868;DHT22;46702;48.370;10.794;2023-03-21T05:22:24;6.90;99.90
60868;DHT22;46702;48.370;10.794;2023-03-21T05:24:52;6.80;99.90
60868;DHT22;46702;48.370;10.794;2023-03-21T05:27:21;6.80;99.90
60868;DHT22;46702;48.370;10.794;2023-03-21T05:30:10;6.80;99.90
60868;DHT22;46702;48.370;10.794;2023-03-21T05:32:36;6.70;99.90
60868;DHT22;46702;48.370;10.794;2023-03-21T05:35:02;6.70;99.90
60868;DHT22;46702;48.370;10.794;2023-03-21T05:37:28;6.70;99.90
60868;DHT22;46702;48.370;10.794;2023-03-21T05:39:53;6.70;99.90
60868;DHT22;46702;48.370;10.794;2023-03-21T05:42:19;6.70;99.90
60868;DHT22;46702;48.370;10.794;2023-03-21T05:44:45;6.60;99.90
60868;DHT22;46702;48.370;10.794;2023-03-21T05:47:12;6.60;99.90
60868;DHT22;46702;48.370;10.794;2023-03-21T05:49:38;6.60;99.90
60868;DHT22;46702;48.370;10.794;2023-03-21T05:52:03;6.60;99.90
60868;DHT22;46702;48.370;10.794;2023-03-21T05:54:29;6.60;99.90
60868;DHT22;46702;48.370;10.794;2023-03-21T05:56:54;6.60;99.90
60868;DHT22;46702;48.370;10.794;2023-03-21T05:59:20;6.60;99.90
60868;DHT22;46702;48.370;10.794;2023-03-21T06:01:46;6.60;99.90
60868;DHT22;46702;48.370;10.794;2023-03-21T06:04:12;6.70;99.90
60868;DHT22;46702;48.370;10.794;2023-03-21T06:06:37;6.70;99.90
60868;DHT22;46702;48.370;10.794;2023-03-21T06:09:03;6.80;99.90
60868;DHT22;46702;48.370;10.794;2023-03-21T06:11:31;6.80;99.90
60868;DHT22;46702;48.370;10.794;2023-03-21T06:13:57;6.80;99.90
60868;DHT22;46702;48.370;10.794;2023-03-21T06:16:23;6.90;99.90
60868;DHT22;46702;48.370;10.794;2023-03-21T06:18:48;6.90;99.90
60868;DHT22;46702;48.370;10.794;2023-03-21T06:21:14;6.90;99.90
60868;DHT22;46702;48.370;10.794;2023-03-21T06:23:39;7.00;99.90
60868;DHT22;46702;48.370;10.794;2023-03-21T06:26:05;7.00;99.90
60868;DHT22;46702;48.370;10.794;2023-03-21T06:28:31;7.10;99.90
60868;DHT22;46702;48.370;10.794;2023-03-21T06:30:57;7.10;99.90
60868;DHT22;46702;48.370;10.794;2023-03-21T06:33:23;7.10;99.90
60868;DHT22;46702;48.370;10.794;2023-03-21T06:35:53;7.20;99.90
60868;DHT22;46702;48.370;10.794;2023-03-21T06:38:19;7.10;99.90
60868;DHT22;46702;48.370;10.794;2023-03-21T06:40:46;7.10;99.90
60868;DHT22;46702;48.370;10.794;2023-03-21T06:43:12;7.10;99.90
60868;DHT22;46702;48.370;10.794;2023-03-21T06:45:38;7.10;99.90
60868;DHT22;46702;48.370;10.794;2023-03-21T06:48:04;7.20;99.90
60868;DHT22;46702;48.370;10.794;2023-03-21T06:50:30;7.20;99.90
60868;DHT22;46702;48.370;10.794;2023-03-21T06:52:56;7.30;99.90
60868;DHT22;46702;48.370;10.794;2023-03-21T06:55:24;7.40;99.90
60868;DHT22;46702;48.370;10.794;2023-03-21T06:57:52;7.30;99.90
60868;DHT22;46702;48.370;10.794;2023-03-21T07:00:18;7.40;99.90
60868;DHT22;46702;48.370;10.794;2023-03-21T07:02:44;7.50;99.90
60868;DHT22;46702;48.370;10.794;2023-03-21T07:05:10;7.50;99.90
60868;DHT22;46702;48.370;10.794;2023-03-21T07:07:36;7.60;99.90
60868;DHT22;46702;48.370;10.794;2023-03-21T07:10:03;7.60;99.90
60868;DHT22;46702;48.370;10.794;2023-03-21T07:12:28;7.70;99.90
60868;DHT22;46702;48.370;10.794;2023-03-21T07:14:58;7.80;99.90
60868;DHT22;46702;48.370;10.794;2023-03-21T07:17:24;7.80;99.90
60868;DHT22;46702;48.370;10.794;2023-03-21T07:19:50;7.90;99.90
60868;DHT22;46702;48.370;10.794;2023-03-21T07:22:15;8.00;99.90
60868;DHT22;46702;48.370;10.794;2023-03-21T07:24:41;8.00;99.90
60868;DHT22;46702;48.370;10.794;2023-03-21T07:27:07;8.10;99.90
60868;DHT22;46702;48.370;10.794;2023-03-21T07:29:32;8.20;99.90
60868;DHT22;46702;48.370;10.794;2023-03-21T07:31:58;8.20;99.90
60868;DHT22;46702;48.370;10.794;2023-03-21T07:34:24;8.20;99.90
60868;DHT22;46702;48.370;10.794;2023-03-21T07:36:51;8.30;99.90
60868;DHT22;46702;48.370;10.794;2023-03-21T07:39:17;8.30;99.90
60868;DHT22;46702;48.370;10.794;2023-03-21T07:41:44;8.40;99.90
60868;DHT22;46702;48.370;10.794;2023-03-21T07:44:10;8.40;99.90
60868;DHT22;46702;48.370;10.794;2023-03-21T07:46:35;8.40;99.90
60868;DHT22;46702;48.370;10.794;2023-03-21T07:49:01;8.50;99.90
60868;DHT22;46702;48.370;10.794;2023-03-21T07:51:27;8.50;99.90
60868;DHT22;46702;48.370;10.794;2023-03-21T07:53:52;8.50;99.90
60868;DHT22;46702;48.370;10.794;2023-03-21T07:56:18;8.50;99.90
60868;DHT22;46702;48.370;10.794;2023-03-21T07:58:43;8.60;99.90
60868;DHT22;46702;48.370;10.794;2023-03-21T08:01:09;8.60;99.90
60868;DHT22;46702;48.370;10.794;2023-03-21T08:03:34;8.70;99.90
60868;DHT22;46702;48.370;10.794;2023-03-21T08:06:00;8.80;99.90
60868;DHT22;46702;48.370;10.794;2023-03-21T08:08:26;8.80;99.90
60868;DHT22;46702;48.370;10.794;2023-03-21T08:10:51;8.90;99.90
60868;DHT22;46702;48.370;10.794;2023-03-21T08:13:17;8.90;99.90
60868;DHT22;46702;48.370;10.794;2023-03-21T08:15:43;9.10;99.90
60868;DHT22;46702;48.370;10.794;2023-03-21T08:18:09;9.10;99.90
60868;DHT22;46702;48.370;10.794;2023-03-21T08:20:35;9.10;99.90
60868;DHT22;46702;48.370;10.794;2023-03-21T08:23:00;9.20;99.90
60868;DHT22;46702;48.370;10.794;2023-03-21T08:25:26;9.30;99.90
60868;DHT22;46702;48.370;10.794;2023-03-21T08:27:52;9.40;99.90
60868;DHT22;46702;48.370;10.794;2023-03-21T08:30:20;9.40;99.90
60868;DHT22;46702;48.370;10.794;2023-03-21T08:32:47;9.50;99.90
60868;DHT22;46702;48.370;10.794;2023-03-21T08:35:15;9.60;99.90
60868;DHT22;46702;48.370;10.794;2023-03-21T08:37:41;9.70;99.90
60868;DHT22;46702;48.370;10.794;2023-03-21T08:40:12;9.80;99.90
60868;DHT22;46702;48.370;10.794;2023-03-21T08:42:41;9.90;99.90
60868;DHT22;46702;48.370;10.794;2023-03-21T08:45:08;9.90;99.90
60868;DHT22;46702;48.370;10.794;2023-03-21T08:47:34;10.10;99.90
60868;DHT22;46702;48.370;10.794;2023-03-21T08:50:00;10.20;99.90
60868;DHT22;46702;48.370;10.794;2023-03-21T08:52:26;10.20;99.90
60868;DHT22;46702;48.370;10.794;2023-03-21T08:54:52;10.20;99.90
60868;DHT22;46702;48.370;10.794;2023-03-21T08:57:18;10.30;99.90
60868;DHT22;46702;48.370;10.794;2023-03-21T08:59:44;10.30;99.90
60868;DHT22;46702;48.370;10.794;2023-03-21T09:02:13;10.30;99.90
60868;DHT22;46702;48.370;10.794;2023-03-21T09:04:40;10.50;99.90
60868;DHT22;46702;48.370;10.794;2023-03-21T09:07:05;10.60;99.90
60868;DHT22;46702;48.370;10.794;2023-03-21T09:09:31;10.50;99.90
60868;DHT22;46702;48.370;10.794;2023-03-21T09:11:57;10.70;99.90
60868;DHT22;46702;48.370;10.794;2023-03-21T09:14:23;10.90;99.90
60868;DHT22;46702;48.370;10.794;2023-03-21T09:16:49;11.10;99.90
60868;DHT22;46702;48.370;10.794;2023-03-21T09:19:15;11.10;99.90
60868;DHT22;46702;48.370;10.794;2023-03-21T09:21:42;11.20;99.90
60868;DHT22;46702;48.370;10.794;2023-03-21T09:24:08;11.30;99.90
60868;DHT22;46702;48.370;10.794;2023-03-21T09:26:34;11.50;99.90
60868;DHT22;46702;48.370;10.794;2023-03-21T09:29:00;11.50;99.90
60868;DHT22;46702;48.370;10.794;2023-03-21T09:31:29;11.40;99.90
60868;DHT22;46702;48.370;10.794;2023-03-21T09:33:55;11.50;99.90
60868;DHT22;46702;48.370;10.794;2023-03-21T09:36:22;11.70;99.90
60868;DHT22;46702;48.370;10.794;2023-03-21T09:38:49;11.80;99.90
60868;DHT22;46702;48.370;10.794;2023-03-21T09:41:44;11.90;99.90
60868;DHT22;46702;48.370;10.794;2023-03-21T09:47:16;12.20;99.90
60868;DHT22;46702;48.370;10.794;2023-03-21T09:49:47;12.30;99.90
60868;DHT22;46702;48.370;10.794;2023-03-21T09:55:02;12.50;99.90
60868;DHT22;46702;48.370;10.794;2023-03-21T09:57:45;12.50;99.90
60868;DHT22;46702;48.370;10.794;2023-03-21T10:00:25;12.40;99.90
60868;DHT22;46702;48.370;10.794;2023-03-21T10:02:53;12.10;99.90
60868;DHT22;46702;48.370;10.794;2023-03-21T10:05:26;11.90;99.90
60868;DHT22;46702;48.370;10.794;2023-03-21T10:08:06;11.90;99.90
60868;DHT22;46702;48.370;10.794;2023-03-21T10:10:54;11.90;99.90
60868;DHT22;46702;48.370;10.794;2023-03-21T10:13:26;12.00;99.90
60868;DHT22;46702;48.370;10.794;2023-03-21T10:15:59;12.00;99.90
60868;DHT22;46702;48.370;10.794;2023-03-21T10:18:29;12.20;99.90
60868;DHT22;46702;48.370;10.794;2023-03-21T10:20:55;12.40;99.90
60868;DHT22;46702;48.370;10.794;2023-03-21T10:23:25;12.50;99.90
60868;DHT22;46702;48.370;10.794;2023-03-21T10:25:55;12.60;99.90
60868;DHT22;46702;48.370;10.794;2023-03-21T10:28:31;12.70;99.90
60868;DHT22;46702;48.370;10.794;2023-03-21T10:31:05;12.90;99.90
60868;DHT22;46702;48.370;10.794;2023-03-21T10:33:35;13.10;99.90
60868;DHT22;46702;48.370;10.794;2023-03-21T10:36:05;13.30;99.90
60868;DHT22;46702;48.370;10.794;2023-03-21T10:38:33;13.50;99.90
60868;DHT22;46702;48.370;10.794;2023-03-21T10:40:59;13.70;99.90
60868;DHT22;46702;48.370;10.794;2023-03-21T10:45:51;13.80;99.90
60868;DHT22;46702;48.370;10.794;2023-03-21T10:48:17;13.80;97.40
60868;DHT22;46702;48.370;10.794;2023-03-21T10:50:46;13.70;99.90
60868;DHT22;46702;48.370;10.794;2023-03-21T10:53:28;13.70;97.00
60868;DHT22;46702;48.370;10.794;2023-03-21T10:55:58;13.70;99.00
60868;DHT22;46702;48.370;10.794;2023-03-21T10:58:29;13.90;99.90
60868;DHT22;46702;48.370;10.794;2023-03-21T11:01:00;13.90;99.50
60868;DHT22;46702;48.370;10.794;2023-03-21T11:03:30;14.00;99.90
60868;DHT22;46702;48.370;10.794;2023-03-21T11:06:26;14.10;99.10
60868;DHT22;46702;48.370;10.794;2023-03-21T11:11:27;14.40;97.90
60868;DHT22;46702;48.370;10.794;2023-03-21T11:14:00;14.20;90.80
60868;DHT22;46702;48.370;10.794;2023-03-21T11:16:37;14.00;96.60
60868;DHT22;46702;48.370;10.794;2023-03-21T11:19:25;13.80;93.10
60868;DHT22;46702;48.370;10.794;2023-03-21T11:21:55;13.90;96.90
60868;DHT22;46702;48.370;10.794;2023-03-21T11:24:21;14.00;91.60
60868;DHT22;46702;48.370;10.794;2023-03-21T11:26:48;13.90;95.70
60868;DHT22;46702;48.370;10.794;2023-03-21T11:29:33;14.10;95.60
60868;DHT22;46702;48.370;10.794;2023-03-21T11:32:08;14.30;94.20
60868;DHT22;46702;48.370;10.794;2023-03-21T11:34:59;14.40;92.80
60868;DHT22;46702;48.370;10.794;2023-03-21T11:37:31;14.50;91.90
60868;DHT22;46702;48.370;10.794;2023-03-21T11:40:24;14.60;92.20
60868;DHT22;46702;48.370;10.794;2023-03-21T11:42:58;14.70;91.90
60868;DHT22;46702;48.370;10.794;2023-03-21T11:45:27;14.80;92.40
60868;DHT22;46702;48.370;10.794;2023-03-21T11:47:55;14.70;92.00
60868;DHT22;46702;48.370;10.794;2023-03-21T11:50:32;14.80;92.60
60868;DHT22;46702;48.370;10.794;2023-03-21T11:56:15;15.30;88.50
60868;DHT22;46702;48.370;10.794;2023-03-21T12:01:34;14.90;82.80
60868;DHT22;46702;48.370;10.794;2023-03-21T12:04:03;15.00;87.10
60868;DHT22;46702;48.370;10.794;2023-03-21T12:06:40;14.70;86.30
60868;DHT22;46702;48.370;10.794;2023-03-21T12:12:21;14.90;87.90
60868;DHT22;46702;48.370;10.794;2023-03-21T12:25:49;15.20;77.40
60868;DHT22;46702;48.370;10.794;2023-03-21T12:39:27;15.10;81.60
60868;DHT22;46702;48.370;10.794;2023-03-21T12:45:08;14.90;80.20
60868;DHT22;46702;48.370;10.794;2023-03-21T12:47:31;15.10;89.00
60868;DHT22;46702;48.370;10.794;2023-03-21T12:52:33;15.30;82.80
60868;DHT22;46702;48.370;10.794;2023-03-21T12:55:04;15.50;78.90
60868;DHT22;46702;48.370;10.794;2023-03-21T12:57:39;15.50;76.70
60868;DHT22;46702;48.370;10.794;2023-03-21T13:00:20;15.40;78.60
60868;DHT22;46702;48.370;10.794;2023-03-21T13:02:54;15.40;81.30
60868;DHT22;46702;48.370;10.794;2023-03-21T13:05:28;15.50;78.50
60868;DHT22;46702;48.370;10.794;2023-03-21T13:10:31;16.00;88.00
60868;DHT22;46702;48.370;10.794;2023-03-21T13:13:18;16.20;78.80
60868;DHT22;46702;48.370;10.794;2023-03-21T13:18:43;16.00;74.80
60868;DHT22;46702;48.370;10.794;2023-03-21T13:26:49;15.60;73.40
60868;DHT22;46702;48.370;10.794;2023-03-21T13:29:41;15.60;75.00
60868;DHT22;46702;48.370;10.794;2023-03-21T13:32:19;15.70;75.70
60868;DHT22;46702;48.370;10.794;2023-03-21T13:34:57;15.70;72.60
60868;DHT22;46702;48.370;10.794;2023-03-21T13:37:25;15.80;67.00
60868;DHT22;46702;48.370;10.794;2023-03-21T13:39:59;15.90;68.90
60868;DHT22;46702;48.370;10.794;2023-03-21T13:42:31;16.00;70.50
60868;DHT22;46702;48.370;10.794;2023-03-21T13:44:59;16.00;71.60
60868;DHT22;46702;48.370;10.794;2023-03-21T13:47:39;16.20;71.90
60868;DHT22;46702;48.370;10.794;2023-03-21T13:50:23;16.30;73.40
60868;DHT22;46702;48.370;10.794;2023-03-21T13:55:42;15.90;76.10
60868;DHT22;46702;48.370;10.794;2023-03-21T14:03:33;15.70;77.80
60868;DHT22;46702;48.370;10.794;2023-03-21T14:05:59;15.80;78.40
60868;DHT22;46702;48.370;10.794;2023-03-21T14:08:26;15.90;79.50
60868;DHT22;46702;48.370;10.794;2023-03-21T14:10:56;15.90;81.60
60868;DHT22;46702;48.370;10.794;2023-03-21T14:13:25;15.80;77.40
60868;DHT22;46702;48.370;10.794;2023-03-21T14:15:59;15.70;82.70
60868;DHT22;46702;48.370;10.794;2023-03-21T14:18:27;15.90;83.70
60868;DHT22;46702;48.370;10.794;2023-03-21T14:20:55;16.10;84.80
60868;DHT22;46702;48.370;10.794;2023-03-21T14:23:21;16.10;83.10
60868;DHT22;46702;48.370;10.794;2023-03-21T14:25:47;16.20;78.60
60868;DHT22;46702;48.370;10.794;2023-03-21T14:30:41;16.00;78.70
60868;DHT22;46702;48.370;10.794;2023-03-21T14:33:15;16.10;76.70
60868;DHT22;46702;48.370;10.794;2023-03-21T14:35:45;16.10;77.00
60868;DHT22;46702;48.370;10.794;2023-03-21T14:38:20;16.00;73.60
60868;DHT22;46702;48.370;10.794;2023-03-21T14:40:49;15.90;77.30
60868;DHT22;46702;48.370;10.794;2023-03-21T14:43:17;15.80;75.70
60868;DHT22;46702;48.370;10.794;2023-03-21T14:45:46;15.80;80.80
60868;DHT22;46702;48.370;10.794;2023-03-21T14:48:14;15.80;82.00
60868;DHT22;46702;48.370;10.794;2023-03-21T14:50:56;15.70;76.10
60868;DHT22;46702;48.370;10.794;2023-03-21T14:53:26;15.50;79.60
60868;DHT22;46702;48.370;10.794;2023-03-21T14:58:44;15.60;81.70
60868;DHT22;46702;48.370;10.794;2023-03-21T15:01:18;15.70;82.80
60868;DHT22;46702;48.370;10.794;2023-03-21T15:03:49;15.40;77.60
60868;DHT22;46702;48.370;10.794;2023-03-21T15:06:15;15.10;82.00
60868;DHT22;46702;48.370;10.794;2023-03-21T15:08:56;15.20;88.50
60868;DHT22;46702;48.370;10.794;2023-03-21T15:11:51;15.10;84.80
60868;DHT22;46702;48.370;10.794;2023-03-21T15:14:22;15.20;84.90
60868;DHT22;46702;48.370;10.794;2023-03-21T15:16:49;15.10;85.50
60868;DHT22;46702;48.370;10.794;2023-03-21T15:19:17;15.20;85.80
60868;DHT22;46702;48.370;10.794;2023-03-21T15:21:53;15.30;87.40
60868;DHT22;46702;48.370;10.794;2023-03-21T15:24:29;15.40;87.10
60868;DHT22;46702;48.370;10.794;2023-03-21T15:27:01;15.50;83.80
60868;DHT22;46702;48.370;10.794;2023-03-21T15:29:28;15.40;84.30
60868;DHT22;46702;48.370;10.794;2023-03-21T15:31:54;15.30;85.20
60868;DHT22;46702;48.370;10.794;2023-03-21T15:34:23;15.20;86.30
60868;DHT22;46702;48.370;10.794;2023-03-21T15:36:54;15.10;82.40
60868;DHT22;46702;48.370;10.794;2023-03-21T15:39:20;15.10;87.00
60868;DHT22;46702;48.370;10.794;2023-03-21T15:44:28;15.20;84.90
60868;DHT22;46702;48.370;10.794;2023-03-21T15:46:55;15.20;86.30
60868;DHT22;46702;48.370;10.794;2023-03-21T15:49:30;15.10;81.80
60868;DHT22;46702;48.370;10.794;2023-03-21T15:51:58;15.10;86.80
60868;DHT22;46702;48.370;10.794;2023-03-21T15:54:51;15.20;88.70
60868;DHT22;46702;48.370;10.794;2023-03-21T15:57:25;15.20;81.40
60868;DHT22;46702;48.370;10.794;2023-03-21T15:59:57;15.20;82.50
60868;DHT22;46702;48.370;10.794;2023-03-21T16:02:30;15.20;85.80
60868;DHT22;46702;48.370;10.794;2023-03-21T16:05:01;15.20;85.70
60868;DHT22;46702;48.370;10.794;2023-03-21T16:07:27;15.20;89.20
60868;DHT22;46702;48.370;10.794;2023-03-21T16:09:58;15.00;81.90
60868;DHT22;46702;48.370;10.794;2023-03-21T16:12:24;14.90;88.30
60868;DHT22;46702;48.370;10.794;2023-03-21T16:14:50;14.90;91.10
60868;DHT22;46702;48.370;10.794;2023-03-21T16:19:53;14.90;90.70
60868;DHT22;46702;48.370;10.794;2023-03-21T16:22:19;14.90;87.20
60868;DHT22;46702;48.370;10.794;2023-03-21T16:24:47;14.90;89.20
60868;DHT22;46702;48.370;10.794;2023-03-21T16:27:13;14.90;90.30
60868;DHT22;46702;48.370;10.794;2023-03-21T16:29:40;14.90;89.80
60868;DHT22;46702;48.370;10.794;2023-03-21T16:32:11;14.90;90.30
60868;DHT22;46702;48.370;10.794;2023-03-21T16:34:39;14.90;90.60
60868;DHT22;46702;48.370;10.794;2023-03-21T16:37:05;14.90;91.00
60868;DHT22;46702;48.370;10.794;2023-03-21T16:39:30;14.90;91.70
60868;DHT22;46702;48.370;10.794;2023-03-21T16:41:56;15.00;91.70
60868;DHT22;46702;48.370;10.794;2023-03-21T16:44:22;15.00;92.10
60868;DHT22;46702;48.370;10.794;2023-03-21T16:46:48;14.90;91.90
60868;DHT22;46702;48.370;10.794;2023-03-21T16:49:22;14.90;89.90
60868;DHT22;46702;48.370;10.794;2023-03-21T16:51:49;14.90;90.00
60868;DHT22;46702;48.370;10.794;2023-03-21T16:54:15;14.80;90.60
60868;DHT22;46702;48.370;10.794;2023-03-21T16:56:49;14.80;91.80
60868;DHT22;46702;48.370;10.794;2023-03-21T16:59:15;14.80;92.60
60868;DHT22;46702;48.370;10.794;2023-03-21T17:01:42;14.80;93.70
60868;DHT22;46702;48.370;10.794;2023-03-21T17:04:11;14.70;93.10
60868;DHT22;46702;48.370;10.794;2023-03-21T17:06:45;14.70;94.50
60868;DHT22;46702;48.370;10.794;2023-03-21T17:09:13;14.60;95.70
60868;DHT22;46702;48.370;10.794;2023-03-21T17:11:39;14.50;96.20
60868;DHT22;46702;48.370;10.794;2023-03-21T17:14:06;14.40;95.80
60868;DHT22;46702;48.370;10.794;2023-03-21T17:16:32;14.20;95.60
60868;DHT22;46702;48.370;10.794;2023-03-21T17:18:58;14.20;97.20
60868;DHT22;46702;48.370;10.794;2023-03-21T17:21:27;14.20;98.50
60868;DHT22;46702;48.370;10.794;2023-03-21T17:23:54;14.20;99.40
60868;DHT22;46702;48.370;10.794;2023-03-21T17:26:25;14.10;99.70
60868;DHT22;46702;48.370;10.794;2023-03-21T17:28:51;14.10;99.90